sensor_id;sensor_type;location;lat;lon;timestamp;pressure;altitude;pressure_sealevel;temperature;humidity
57791;BME280;43621;51.798;21.588;2022-11-15T00:03:31;100346.85;;;7.16;73.68
57791;BME280;43621;51.798;21.588;2022-11-15T00:07:36;100348.38;;;7.17;73.78
57791;BME280;43621;51.798;21.588;2022-11-15T00:11:41;100351.43;;;7.18;73.92
57791;BME280;43621;51.798;21.588;2022-11-15T00:15:46;100348.08;;;7.23;74.11
57791;BME280;43621;51.798;21.588;2022-11-15T00:19:51;100345.00;;;7.27;74.03
57791;BME280;43621;51.798;21.588;2022-11-15T00:23:56;100336.61;;;7.30;73.97
57791;BME280;43621;51.798;21.588;2022-11-15T00:28:01;100329.40;;;7.29;73.87
57791;BME280;43621;51.798;21.588;2022-11-15T00:32:06;100322.42;;;7.22;73.64
57791;BME280;43621;51.798;21.588;2022-11-15T00:36:12;100319.52;;;7.15;73.82
57791;BME280;43621;51.798;21.588;2022-11-15T00:40:17;100310.48;;;7.10;73.98
57791;BME280;43621;51.798;21.588;2022-11-15T00:44:22;100302.00;;;7.10;73.96
57791;BME280;43621;51.798;21.588;2022-11-15T00:48:27;100295.72;;;7.13;74.09
57791;BME280;43621;51.798;21.588;2022-11-15T00:52:32;100293.47;;;7.17;74.23
57791;BME280;43621;51.798;21.588;2022-11-15T00:56:37;100285.65;;;7.15;74.02
57791;BME280;43621;51.798;21.588;2022-11-15T01:00:42;100281.36;;;7.05;74.07
57791;BME280;43621;51.798;21.588;2022-11-15T01:04:47;100272.70;;;6.97;74.37
57791;BME280;43621;51.798;21.588;2022-11-15T01:08:53;100266.75;;;6.96;74.44
57791;BME280;43621;51.798;21.588;2022-11-15T01:12:58;100266.31;;;6.90;74.53
57791;BME280;43621;51.798;21.588;2022-11-15T01:17:03;100259.79;;;6.86;74.60
57791;BME280;43621;51.798;21.588;2022-11-15T01:21:10;100254.23;;;6.91;74.72
57791;BME280;43621;51.798;21.588;2022-11-15T01:25:16;100244.91;;;6.95;74.77
57791;BME280;43621;51.798;21.588;2022-11-15T01:29:21;100241.63;;;6.97;74.64
57791;BME280;43621;51.798;21.588;2022-11-15T01:33:26;100233.60;;;6.96;74.54
57791;BME280;43621;51.798;21.588;2022-11-15T01:37:31;100224.80;;;6.97;74.67
57791;BME280;43621;51.798;21.588;2022-11-15T01:41:36;100225.17;;;6.97;74.51
57791;BME280;43621;51.798;21.588;2022-11-15T01:45:41;100221.09;;;6.96;74.63
57791;BME280;43621;51.798;21.588;2022-11-15T01:49:52;100212.35;;;6.97;74.67
57791;BME280;43621;51.798;21.588;2022-11-15T01:54:01;100209.88;;;6.99;74.78
57791;BME280;43621;51.798;21.588;2022-11-15T01:58:08;100205.89;;;7.02;74.62
57791;BME280;43621;51.798;21.588;2022-11-15T02:02:13;100199.46;;;6.99;74.65
57791;BME280;43621;51.798;21.588;2022-11-15T02:06:19;100191.11;;;6.93;74.48
57791;BME280;43621;51.798;21.588;2022-11-15T02:10:27;100183.00;;;6.85;74.52
57791;BME280;43621;51.798;21.588;2022-11-15T02:14:32;100186.13;;;6.76;74.90
57791;BME280;43621;51.798;21.588;2022-11-15T02:18:41;100176.24;;;6.63;75.10
57791;BME280;43621;51.798;21.588;2022-11-15T02:22:57;100178.40;;;6.62;75.33
57791;BME280;43621;51.798;21.588;2022-11-15T02:27:32;100175.97;;;6.65;75.36
57791;BME280;43621;51.798;21.588;2022-11-15T02:31:48;100165.73;;;6.75;75.50
57791;BME280;43621;51.798;21.588;2022-11-15T02:36:00;100162.91;;;6.80;75.35
57791;BME280;43621;51.798;21.588;2022-11-15T02:40:10;100162.77;;;6.80;75.30
57791;BME280;43621;51.798;21.588;2022-11-15T02:44:21;100161.38;;;6.77;75.27
57791;BME280;43621;51.798;21.588;2022-11-15T02:48:29;100153.84;;;6.78;75.28
57791;BME280;43621;51.798;21.588;2022-11-15T02:52:35;100146.17;;;6.71;75.15
57791;BME280;43621;51.798;21.588;2022-11-15T02:56:40;100146.73;;;6.66;75.42
57791;BME280;43621;51.798;21.588;2022-11-15T03:00:49;100146.15;;;6.62;75.47
57791;BME280;43621;51.798;21.588;2022-11-15T03:05:01;100142.04;;;6.62;75.56
57791;BME280;43621;51.798;21.588;2022-11-15T03:09:13;100141.13;;;6.64;75.56
57791;BME280;43621;51.798;21.588;2022-11-15T03:13:30;100136.47;;;6.64;75.48
57791;BME280;43621;51.798;21.588;2022-11-15T03:17:40;100131.11;;;6.66;75.64
57791;BME280;43621;51.798;21.588;2022-11-15T03:21:49;100123.28;;;6.67;75.73
57791;BME280;43621;51.798;21.588;2022-11-15T03:25:56;100122.56;;;6.67;75.83
57791;BME280;43621;51.798;21.588;2022-11-15T03:30:06;100124.20;;;6.66;75.73
57791;BME280;43621;51.798;21.588;2022-11-15T03:34:17;100123.30;;;6.66;75.74
57791;BME280;43621;51.798;21.588;2022-11-15T03:38:26;100114.27;;;6.66;75.67
57791;BME280;43621;51.798;21.588;2022-11-15T03:42:34;100107.83;;;6.64;75.59
57791;BME280;43621;51.798;21.588;2022-11-15T03:46:46;100101.30;;;6.56;75.71
57791;BME280;43621;51.798;21.588;2022-11-15T03:50:53;100098.92;;;6.48;75.96
57791;BME280;43621;51.798;21.588;2022-11-15T03:55:01;100092.12;;;6.44;76.09
57791;BME280;43621;51.798;21.588;2022-11-15T03:59:07;100090.83;;;6.43;76.15
57791;BME280;43621;51.798;21.588;2022-11-15T04:03:12;100086.68;;;6.45;76.24
57791;BME280;43621;51.798;21.588;2022-11-15T04:07:17;100078.83;;;6.51;76.27
57791;BME280;43621;51.798;21.588;2022-11-15T04:11:22;100070.17;;;6.55;76.21
57791;BME280;43621;51.798;21.588;2022-11-15T04:15:27;100060.45;;;6.51;76.13
57791;BME280;43621;51.798;21.588;2022-11-15T04:19:33;100049.60;;;6.44;76.10
57791;BME280;43621;51.798;21.588;2022-11-15T04:23:57;100046.70;;;6.46;76.26
57791;BME280;43621;51.798;21.588;2022-11-15T04:28:18;100039.42;;;6.49;76.18
57791;BME280;43621;51.798;21.588;2022-11-15T04:32:23;100037.63;;;6.47;76.26
57791;BME280;43621;51.798;21.588;2022-11-15T04:36:28;100038.35;;;6.49;76.17
57791;BME280;43621;51.798;21.588;2022-11-15T04:40:52;100034.13;;;6.48;76.09
57791;BME280;43621;51.798;21.588;2022-11-15T04:44:57;100038.91;;;6.41;76.23
57791;BME280;43621;51.798;21.588;2022-11-15T04:49:02;100035.39;;;6.37;76.22
57791;BME280;43621;51.798;21.588;2022-11-15T04:53:07;100024.62;;;6.40;76.29
57791;BME280;43621;51.798;21.588;2022-11-15T04:57:12;100019.86;;;6.41;76.33
57791;BME280;43621;51.798;21.588;2022-11-15T05:01:18;100017.05;;;6.39;76.45
57791;BME280;43621;51.798;21.588;2022-11-15T05:05:23;100018.08;;;6.35;76.41
57791;BME280;43621;51.798;21.588;2022-11-15T05:09:28;100020.23;;;6.34;76.45
57791;BME280;43621;51.798;21.588;2022-11-15T05:13:33;100019.83;;;6.37;76.58
57791;BME280;43621;51.798;21.588;2022-11-15T05:17:38;100014.67;;;6.41;76.52
57791;BME280;43621;51.798;21.588;2022-11-15T05:21:43;100013.44;;;6.41;76.45
57791;BME280;43621;51.798;21.588;2022-11-15T05:25:48;100008.73;;;6.37;76.49
57791;BME280;43621;51.798;21.588;2022-11-15T05:29:53;100004.30;;;6.29;76.58
57791;BME280;43621;51.798;21.588;2022-11-15T05:33:59;99998.20;;;6.20;76.71
57791;BME280;43621;51.798;21.588;2022-11-15T05:38:05;99994.87;;;6.20;76.82
57791;BME280;43621;51.798;21.588;2022-11-15T05:42:12;99996.95;;;6.20;76.95
57791;BME280;43621;51.798;21.588;2022-11-15T05:46:18;99992.10;;;6.20;77.03
57791;BME280;43621;51.798;21.588;2022-11-15T05:50:24;99992.74;;;6.16;76.90
57791;BME280;43621;51.798;21.588;2022-11-15T05:54:29;99989.38;;;6.15;77.22
57791;BME280;43621;51.798;21.588;2022-11-15T05:58:35;99988.37;;;6.19;77.20
57791;BME280;43621;51.798;21.588;2022-11-15T06:02:41;99988.53;;;6.24;77.17
57791;BME280;43621;51.798;21.588;2022-11-15T06:06:46;99985.36;;;6.29;77.18
57791;BME280;43621;51.798;21.588;2022-11-15T06:10:51;99990.80;;;6.33;77.30
57791;BME280;43621;51.798;21.588;2022-11-15T06:14:56;99993.10;;;6.35;77.10
57791;BME280;43621;51.798;21.588;2022-11-15T06:19:01;99996.38;;;6.33;77.00
57791;BME280;43621;51.798;21.588;2022-11-15T06:23:06;99996.94;;;6.32;76.91
57791;BME280;43621;51.798;21.588;2022-11-15T06:27:11;100004.42;;;6.32;76.82
57791;BME280;43621;51.798;21.588;2022-11-15T06:31:16;100005.67;;;6.34;76.73
57791;BME280;43621;51.798;21.588;2022-11-15T06:35:21;100008.90;;;6.35;76.66
57791;BME280;43621;51.798;21.588;2022-11-15T06:39:26;100009.09;;;6.34;76.59
57791;BME280;43621;51.798;21.588;2022-11-15T06:43:32;100008.30;;;6.35;76.61
57791;BME280;43621;51.798;21.588;2022-11-15T06:47:37;100011.10;;;6.42;76.64
57791;BME280;43621;51.798;21.588;2022-11-15T06:51:48;100009.46;;;6.51;76.73
57791;BME280;43621;51.798;21.588;2022-11-15T06:55:53;100006.98;;;6.58;76.69
57791;BME280;43621;51.798;21.588;2022-11-15T07:00:03;100008.86;;;6.63;76.61
57791;BME280;43621;51.798;21.588;2022-11-15T07:04:09;100012.41;;;6.58;76.13
57791;BME280;43621;51.798;21.588;2022-11-15T07:08:14;100014.48;;;6.53;76.22
57791;BME280;43621;51.798;21.588;2022-11-15T07:12:19;100015.75;;;6.53;76.26
57791;BME280;43621;51.798;21.588;2022-11-15T07:16:24;100018.34;;;6.50;76.16
57791;BME280;43621;51.798;21.588;2022-11-15T07:20:29;100016.76;;;6.51;76.29
57791;BME280;43621;51.798;21.588;2022-11-15T07:24:34;100012.96;;;6.55;76.29
57791;BME280;43621;51.798;21.588;2022-11-15T07:28:39;100010.98;;;6.63;76.30
57791;BME280;43621;51.798;21.588;2022-11-15T07:32:44;100009.80;;;6.72;76.34
57791;BME280;43621;51.798;21.588;2022-11-15T07:36:49;100011.90;;;6.81;76.30
57791;BME280;43621;51.798;21.588;2022-11-15T07:41:00;100007.70;;;6.88;76.21
57791;BME280;43621;51.798;21.588;2022-11-15T07:45:07;100009.48;;;6.94;76.26
57791;BME280;43621;51.798;21.588;2022-11-15T07:49:12;100005.98;;;6.99;75.93
57791;BME280;43621;51.798;21.588;2022-11-15T07:53:17;100002.24;;;6.96;75.51
57791;BME280;43621;51.798;21.588;2022-11-15T07:57:22;99995.07;;;6.94;75.59
57791;BME280;43621;51.798;21.588;2022-11-15T08:01:27;99992.02;;;6.98;75.56
57791;BME280;43621;51.798;21.588;2022-11-15T08:05:33;99989.66;;;6.97;75.40
57791;BME280;43621;51.798;21.588;2022-11-15T08:09:38;99983.40;;;6.95;75.45
57791;BME280;43621;51.798;21.588;2022-11-15T08:13:43;99975.29;;;6.94;75.51
57791;BME280;43621;51.798;21.588;2022-11-15T08:17:48;99972.64;;;7.02;75.58
57791;BME280;43621;51.798;21.588;2022-11-15T08:21:57;99967.74;;;7.18;75.62
57791;BME280;43621;51.798;21.588;2022-11-15T08:26:03;99964.91;;;7.31;75.41
57791;BME280;43621;51.798;21.588;2022-11-15T08:30:10;99960.89;;;7.39;75.34
57791;BME280;43621;51.798;21.588;2022-11-15T08:34:16;99959.32;;;7.39;75.10
57791;BME280;43621;51.798;21.588;2022-11-15T08:38:21;99957.08;;;7.34;74.85
57791;BME280;43621;51.798;21.588;2022-11-15T08:42:26;99955.21;;;7.31;74.88
57791;BME280;43621;51.798;21.588;2022-11-15T08:46:31;99956.98;;;7.31;74.74
57791;BME280;43621;51.798;21.588;2022-11-15T08:50:36;99960.59;;;7.31;74.87
57791;BME280;43621;51.798;21.588;2022-11-15T08:54:41;99955.17;;;7.36;74.95
57791;BME280;43621;51.798;21.588;2022-11-15T08:58:46;99956.45;;;7.47;75.06
57791;BME280;43621;51.798;21.588;2022-11-15T09:02:51;99955.39;;;7.58;74.97
57791;BME280;43621;51.798;21.588;2022-11-15T09:06:56;99955.07;;;7.70;74.99
57791;BME280;43621;51.798;21.588;2022-11-15T09:11:04;99951.65;;;7.81;74.78
57791;BME280;43621;51.798;21.588;2022-11-15T09:15:10;99944.23;;;7.78;74.47
57791;BME280;43621;51.798;21.588;2022-11-15T09:19:16;99940.77;;;7.73;73.99
57791;BME280;43621;51.798;21.588;2022-11-15T09:23:21;99935.86;;;7.74;74.13
57791;BME280;43621;51.798;21.588;2022-11-15T09:27:28;99929.70;;;7.77;73.96
57791;BME280;43621;51.798;21.588;2022-11-15T09:31:33;99926.43;;;7.77;73.70
57791;BME280;43621;51.798;21.588;2022-11-15T09:35:39;99923.84;;;7.76;73.65
57791;BME280;43621;51.798;21.588;2022-11-15T09:39:45;99919.02;;;7.74;73.68
57791;BME280;43621;51.798;21.588;2022-11-15T09:43:58;99917.30;;;7.75;73.68
57791;BME280;43621;51.798;21.588;2022-11-15T09:48:25;99912.85;;;7.79;73.72
57791;BME280;43621;51.798;21.588;2022-11-15T09:52:35;99906.73;;;7.79;73.32
57791;BME280;43621;51.798;21.588;2022-11-15T09:56:43;99898.27;;;7.70;73.29
57791;BME280;43621;51.798;21.588;2022-11-15T10:00:50;99888.48;;;7.69;73.37
57791;BME280;43621;51.798;21.588;2022-11-15T10:04:58;99880.80;;;7.73;73.37
57791;BME280;43621;51.798;21.588;2022-11-15T10:09:11;99877.70;;;7.84;73.38
57791;BME280;43621;51.798;21.588;2022-11-15T10:13:23;99868.32;;;7.86;73.37
57791;BME280;43621;51.798;21.588;2022-11-15T10:17:49;99858.73;;;7.84;73.04
57791;BME280;43621;51.798;21.588;2022-11-15T10:22:05;99853.27;;;7.84;73.04
57791;BME280;43621;51.798;21.588;2022-11-15T10:26:17;99846.69;;;7.89;73.12
57791;BME280;43621;51.798;21.588;2022-11-15T10:30:23;99840.59;;;7.95;73.21
57791;BME280;43621;51.798;21.588;2022-11-15T10:34:28;99835.19;;;8.04;73.25
57791;BME280;43621;51.798;21.588;2022-11-15T10:38:35;99827.02;;;8.08;73.06
57791;BME280;43621;51.798;21.588;2022-11-15T10:43:12;99825.27;;;8.04;72.62
57791;BME280;43621;51.798;21.588;2022-11-15T10:47:34;99828.73;;;8.11;72.68
57791;BME280;43621;51.798;21.588;2022-11-15T10:51:44;99823.04;;;8.12;72.80
57791;BME280;43621;51.798;21.588;2022-11-15T10:55:51;99814.63;;;8.19;73.03
57791;BME280;43621;51.798;21.588;2022-11-15T10:59:59;99808.20;;;8.25;73.01
57791;BME280;43621;51.798;21.588;2022-11-15T11:04:07;99802.81;;;8.31;72.87
57791;BME280;43621;51.798;21.588;2022-11-15T11:08:23;99805.52;;;8.39;72.64
57791;BME280;43621;51.798;21.588;2022-11-15T11:12:33;99804.72;;;8.48;72.75
57791;BME280;43621;51.798;21.588;2022-11-15T11:16:44;99801.71;;;8.54;72.48
57791;BME280;43621;51.798;21.588;2022-11-15T11:20:54;99800.92;;;8.54;72.45
57791;BME280;43621;51.798;21.588;2022-11-15T17:00:59;99580.70;;;7.19;72.54
57791;BME280;43621;51.798;21.588;2022-11-15T17:05:04;99580.33;;;7.17;72.73
57791;BME280;43621;51.798;21.588;2022-11-15T17:09:11;99577.84;;;7.18;72.83
57791;BME280;43621;51.798;21.588;2022-11-15T17:13:16;99578.95;;;7.17;73.00
57791;BME280;43621;51.798;21.588;2022-11-15T17:17:21;99581.04;;;7.17;73.06
57791;BME280;43621;51.798;21.588;2022-11-15T17:21:26;99579.25;;;7.16;73.15
57791;BME280;43621;51.798;21.588;2022-11-15T17:25:32;99574.83;;;7.19;73.15
57791;BME280;43621;51.798;21.588;2022-11-15T17:29:37;99568.58;;;7.23;73.01
57791;BME280;43621;51.798;21.588;2022-11-15T17:33:42;99563.71;;;7.29;73.09
57791;BME280;43621;51.798;21.588;2022-11-15T17:37:47;99556.71;;;7.35;73.12
57791;BME280;43621;51.798;21.588;2022-11-15T17:41:52;99555.29;;;7.34;72.92
57791;BME280;43621;51.798;21.588;2022-11-15T17:45:57;99562.17;;;7.30;72.96
57791;BME280;43621;51.798;21.588;2022-11-15T17:50:02;99563.92;;;7.24;72.96
57791;BME280;43621;51.798;21.588;2022-11-15T17:54:10;99558.53;;;7.20;73.06
57791;BME280;43621;51.798;21.588;2022-11-15T17:58:16;99552.34;;;7.22;73.24
57791;BME280;43621;51.798;21.588;2022-11-15T18:02:22;99546.22;;;7.30;73.27
57791;BME280;43621;51.798;21.588;2022-11-15T18:06:28;99539.85;;;7.34;73.23
57791;BME280;43621;51.798;21.588;2022-11-15T18:10:36;99536.30;;;7.24;73.06
57791;BME280;43621;51.798;21.588;2022-11-15T18:14:41;99536.19;;;7.14;73.08
57791;BME280;43621;51.798;21.588;2022-11-15T18:18:46;99537.73;;;7.12;73.22
57791;BME280;43621;51.798;21.588;2022-11-15T18:22:54;99537.36;;;7.18;73.29
57791;BME280;43621;51.798;21.588;2022-11-15T18:27:00;99532.63;;;7.21;73.28
57791;BME280;43621;51.798;21.588;2022-11-15T18:31:14;99530.24;;;7.14;73.19
57791;BME280;43621;51.798;21.588;2022-11-15T18:35:20;99527.02;;;7.05;73.17
57791;BME280;43621;51.798;21.588;2022-11-15T18:39:25;99522.82;;;7.03;73.32
57791;BME280;43621;51.798;21.588;2022-11-15T18:43:30;99529.48;;;7.09;73.47
57791;BME280;43621;51.798;21.588;2022-11-15T18:47:35;99532.27;;;7.15;73.53
57791;BME280;43621;51.798;21.588;2022-11-15T18:51:41;99540.28;;;7.11;73.44
57791;BME280;43621;51.798;21.588;2022-11-15T18:55:46;99535.93;;;7.06;73.48
57791;BME280;43621;51.798;21.588;2022-11-15T18:59:51;99527.80;;;7.08;73.57
57791;BME280;43621;51.798;21.588;2022-11-15T19:03:57;99522.08;;;7.16;73.53
57791;BME280;43621;51.798;21.588;2022-11-15T19:08:02;99526.46;;;7.22;73.46
57791;BME280;43621;51.798;21.588;2022-11-15T19:12:07;99529.84;;;7.27;73.66
57791;BME280;43621;51.798;21.588;2022-11-15T19:16:14;99525.45;;;7.27;73.59
57791;BME280;43621;51.798;21.588;2022-11-15T19:20:19;99525.91;;;7.20;73.45
57791;BME280;43621;51.798;21.588;2022-11-15T19:24:24;99524.14;;;7.06;73.26
57791;BME280;43621;51.798;21.588;2022-11-15T19:28:31;99524.45;;;6.98;73.35
57791;BME280;43621;51.798;21.588;2022-11-15T19:32:36;99523.76;;;7.01;73.29
57791;BME280;43621;51.798;21.588;2022-11-15T19:36:42;99521.08;;;7.01;73.50
57791;BME280;43621;51.798;21.588;2022-11-15T19:40:48;99519.69;;;6.99;73.53
57791;BME280;43621;51.798;21.588;2022-11-15T19:44:53;99520.13;;;6.98;73.81
57791;BME280;43621;51.798;21.588;2022-11-15T19:48:58;99520.11;;;7.03;73.79
57791;BME280;43621;51.798;21.588;2022-11-15T19:53:02;99515.50;;;7.08;73.68
57791;BME280;43621;51.798;21.588;2022-11-15T19:57:08;99515.02;;;7.10;73.70
57791;BME280;43621;51.798;21.588;2022-11-15T20:01:17;99512.77;;;7.01;73.60
57791;BME280;43621;51.798;21.588;2022-11-15T20:05:22;99501.77;;;6.88;73.75
57791;BME280;43621;51.798;21.588;2022-11-15T20:09:28;99496.16;;;6.90;73.90
57791;BME280;43621;51.798;21.588;2022-11-15T20:13:33;99495.23;;;6.97;73.93
57791;BME280;43621;51.798;21.588;2022-11-15T20:17:38;99501.20;;;7.00;73.93
57791;BME280;43621;51.798;21.588;2022-11-15T20:21:44;99497.15;;;7.01;73.93
57791;BME280;43621;51.798;21.588;2022-11-15T20:25:49;99492.24;;;7.00;73.94
57791;BME280;43621;51.798;21.588;2022-11-15T20:29:54;99495.74;;;7.03;74.01
57791;BME280;43621;51.798;21.588;2022-11-15T20:33:59;99488.36;;;7.07;73.66
57791;BME280;43621;51.798;21.588;2022-11-15T20:38:04;99480.52;;;7.01;73.49
57791;BME280;43621;51.798;21.588;2022-11-15T20:42:10;99481.38;;;6.91;73.65
57791;BME280;43621;51.798;21.588;2022-11-15T20:46:15;99487.34;;;6.86;73.87
57791;BME280;43621;51.798;21.588;2022-11-15T20:50:20;99494.35;;;6.89;73.91
57791;BME280;43621;51.798;21.588;2022-11-15T20:54:25;99494.34;;;6.92;73.80
57791;BME280;43621;51.798;21.588;2022-11-15T20:58:29;99488.73;;;6.90;73.74
57791;BME280;43621;51.798;21.588;2022-11-15T21:02:35;99480.66;;;6.85;73.83
57791;BME280;43621;51.798;21.588;2022-11-15T21:06:40;99467.76;;;6.80;73.80
57791;BME280;43621;51.798;21.588;2022-11-15T21:10:47;99463.66;;;6.79;73.82
57791;BME280;43621;51.798;21.588;2022-11-15T21:15:12;99461.14;;;6.86;73.95
57791;BME280;43621;51.798;21.588;2022-11-15T21:19:17;99456.91;;;6.93;73.77
57791;BME280;43621;51.798;21.588;2022-11-15T21:23:22;99455.67;;;6.97;73.94
57791;BME280;43621;51.798;21.588;2022-11-15T21:27:27;99456.20;;;6.97;73.82
57791;BME280;43621;51.798;21.588;2022-11-15T21:31:33;99460.35;;;6.95;74.00
57791;BME280;43621;51.798;21.588;2022-11-15T21:35:38;99462.54;;;6.92;73.89
57791;BME280;43621;51.798;21.588;2022-11-15T21:39:43;99461.33;;;6.92;73.83
57791;BME280;43621;51.798;21.588;2022-11-15T21:43:48;99457.37;;;6.94;73.71
57791;BME280;43621;51.798;21.588;2022-11-15T21:47:53;99453.22;;;6.98;73.81
57791;BME280;43621;51.798;21.588;2022-11-15T21:51:58;99451.36;;;7.01;73.86
57791;BME280;43621;51.798;21.588;2022-11-15T21:56:03;99454.29;;;6.99;73.86
57791;BME280;43621;51.798;21.588;2022-11-15T22:00:11;99455.05;;;6.97;73.86
57791;BME280;43621;51.798;21.588;2022-11-15T22:04:36;99455.61;;;6.94;73.82
57791;BME280;43621;51.798;21.588;2022-11-15T22:08:59;99452.98;;;6.88;73.62
57791;BME280;43621;51.798;21.588;2022-11-15T22:13:04;99446.73;;;6.80;73.59
57791;BME280;43621;51.798;21.588;2022-11-15T22:17:09;99445.21;;;6.80;73.77
57791;BME280;43621;51.798;21.588;2022-11-15T22:21:16;99442.79;;;6.78;73.80
57791;BME280;43621;51.798;21.588;2022-11-15T22:25:22;99437.38;;;6.74;73.79
57791;BME280;43621;51.798;21.588;2022-11-15T22:29:27;99431.97;;;6.66;73.61
57791;BME280;43621;51.798;21.588;2022-11-15T22:33:34;99421.83;;;6.65;73.64
57791;BME280;43621;51.798;21.588;2022-11-15T22:37:39;99414.23;;;6.70;73.92
57791;BME280;43621;51.798;21.588;2022-11-15T22:41:44;99412.03;;;6.72;73.98
57791;BME280;43621;51.798;21.588;2022-11-15T22:45:52;99406.04;;;6.73;74.07
57791;BME280;43621;51.798;21.588;2022-11-15T22:49:58;99406.63;;;6.70;73.72
57791;BME280;43621;51.798;21.588;2022-11-15T22:54:04;99405.67;;;6.69;73.74
57791;BME280;43621;51.798;21.588;2022-11-15T22:58:09;99408.25;;;6.71;73.82
57791;BME280;43621;51.798;21.588;2022-11-15T23:02:14;99400.75;;;6.66;73.78
57791;BME280;43621;51.798;21.588;2022-11-15T23:06:20;99392.79;;;6.55;73.90
57791;BME280;43621;51.798;21.588;2022-11-15T23:10:25;99390.08;;;6.57;74.14
57791;BME280;43621;51.798;21.588;2022-11-15T23:14:49;99389.37;;;6.69;74.35
57791;BME280;43621;51.798;21.588;2022-11-15T23:18:57;99384.98;;;6.74;74.06
57791;BME280;43621;51.798;21.588;2022-11-15T23:23:02;99378.17;;;6.70;73.92
57791;BME280;43621;51.798;21.588;2022-11-15T23:27:08;99376.17;;;6.59;73.81
57791;BME280;43621;51.798;21.588;2022-11-15T23:31:14;99373.00;;;6.53;74.06
57791;BME280;43621;51.798;21.588;2022-11-15T23:35:38;99371.37;;;6.60;74.16
57791;BME280;43621;51.798;21.588;2022-11-15T23:39:43;99370.02;;;6.66;74.18
57791;BME280;43621;51.798;21.588;2022-11-15T23:43:48;99364.27;;;6.72;74.34
57791;BME280;43621;51.798;21.588;2022-11-15T23:47:53;99363.13;;;6.73;74.14
57791;BME280;43621;51.798;21.588;2022-11-15T23:51:59;99364.09;;;6.68;74.10
57791;BME280;43621;51.798;21.588;2022-11-15T23:56:06;99359.80;;;6.62;74.13
